Time;durP1;ratioP1;P1;durP2;ratioP2;P2;SDS_P1;SDS_P2;PMS_P1;PMS_P2;Temp;Humidity;BMP_temperature;BMP_pressure;BME280_temperature;BME280_humidity;BME280_pressure;Samples;Min_cycle;Max_cycle;Signal;HPM_P1;HPM_P2
2022/12/09 00:00:01;;;;;;;15.90;9.85;;;3.60;99.90;;;;;;5030177;28;20040;-68
2022/12/09 00:02:28;;;;;;;15.60;9.02;;;3.60;99.90;;;;;;5046458;28;20034;-69
2022/12/09 00:04:54;;;;;;;15.80;9.32;;;3.60;99.90;;;;;;5031183;28;20025;-69
2022/12/09 00:07:19;;;;;;;14.70;9.80;;;3.60;99.90;;;;;;5046296;28;20427;-69
2022/12/09 00:09:45;;;;;;;15.82;9.57;;;3.60;99.90;;;;;;5031070;28;20137;-69
2022/12/09 00:12:11;;;;;;;16.27;10.02;;;3.60;99.90;;;;;;5031181;28;20032;-68
2022/12/09 00:14:36;;;;;;;14.65;10.07;;;3.50;99.90;;;;;;5031354;28;20029;-69
2022/12/09 00:17:02;;;;;;;13.68;9.02;;;3.50;99.90;;;;;;5030704;28;20029;-69
2022/12/09 00:19:28;;;;;;;15.07;9.75;;;3.50;99.90;;;;;;5031504;28;20030;-69
2022/12/09 00:21:53;;;;;;;16.38;10.50;;;3.50;99.90;;;;;;5030879;28;20037;-69
2022/12/09 00:24:19;;;;;;;15.57;9.57;;;3.50;99.90;;;;;;5030511;28;20121;-69
2022/12/09 00:26:44;;;;;;;18.65;10.90;;;3.50;99.90;;;;;;5031244;28;20075;-68
2022/12/09 00:29:10;;;;;;;17.95;10.93;;;3.50;99.90;;;;;;5030758;28;20026;-68
2022/12/09 00:31:37;;;;;;;16.70;11.43;;;3.50;99.90;;;;;;5030788;28;20033;-68
2022/12/09 00:34:06;;;;;;;19.65;12.40;;;3.50;99.90;;;;;;5025397;28;20044;-68
2022/12/09 00:36:32;;;;;;;16.88;12.00;;;3.50;99.90;;;;;;5031592;28;20436;-68
2022/12/09 00:38:58;;;;;;;17.88;12.57;;;3.50;99.90;;;;;;5046807;28;20069;-67
2022/12/09 00:41:25;;;;;;;21.02;12.68;;;3.50;99.90;;;;;;5030341;28;20078;-67
2022/12/09 00:43:51;;;;;;;19.55;12.70;;;3.50;99.90;;;;;;5031299;28;20083;-67
2022/12/09 00:46:17;;;;;;;19.35;12.07;;;3.40;99.90;;;;;;5031116;28;20084;-68
2022/12/09 00:48:46;;;;;;;20.58;12.57;;;3.40;99.90;;;;;;5030819;28;20093;-68
2022/12/09 00:51:15;;;;;;;20.08;12.30;;;3.40;99.90;;;;;;5029999;28;20074;-67
2022/12/09 00:53:41;;;;;;;18.40;12.38;;;3.40;99.90;;;;;;5030803;28;20425;-68
2022/12/09 00:56:07;;;;;;;20.73;12.60;;;3.40;99.90;;;;;;5030831;28;20048;-68
2022/12/09 00:58:32;;;;;;;20.67;12.85;;;3.40;99.90;;;;;;5030927;28;20457;-67
2022/12/09 01:00:58;;;;;;;18.65;12.65;;;3.40;99.90;;;;;;5029882;28;20079;-68
2022/12/09 01:03:24;;;;;;;20.55;13.43;;;3.40;99.90;;;;;;5030414;28;20026;-68
2022/12/09 01:05:49;;;;;;;17.85;11.93;;;3.40;99.90;;;;;;5030371;28;20424;-68
2022/12/09 01:08:15;;;;;;;17.38;12.48;;;3.40;99.90;;;;;;5030906;28;20026;-68
2022/12/09 01:10:43;;;;;;;19.92;12.73;;;3.40;99.90;;;;;;5028856;28;20033;-68
2022/12/09 01:13:09;;;;;;;21.80;14.32;;;3.40;99.90;;;;;;5030988;28;20021;-68
2022/12/09 01:15:36;;;;;;;19.30;12.60;;;3.40;99.90;;;;;;5029785;28;20416;-68
2022/12/09 01:18:01;;;;;;;19.30;12.73;;;3.40;99.90;;;;;;5029569;28;20026;-67
2022/12/09 01:20:27;;;;;;;20.83;14.25;;;3.40;99.90;;;;;;5027741;28;20037;-67
2022/12/09 01:22:53;;;;;;;22.27;14.30;;;3.40;99.90;;;;;;5027469;28;20473;-67
2022/12/09 01:25:18;;;;;;;20.98;12.95;;;3.40;99.90;;;;;;5011066;28;20032;-67
2022/12/09 01:27:44;;;;;;;25.85;15.20;;;3.40;99.90;;;;;;5030163;28;20079;-68
2022/12/09 01:30:12;;;;;;;22.55;14.25;;;3.30;99.90;;;;;;5033811;28;20455;-68
2022/12/09 01:32:38;;;;;;;22.15;13.95;;;3.40;99.90;;;;;;5032786;28;20112;-68
2022/12/09 01:35:04;;;;;;;24.38;14.32;;;3.40;99.90;;;;;;5032757;28;20104;-67
2022/12/09 01:37:33;;;;;;;21.98;14.50;;;3.30;99.90;;;;;;5032545;28;20052;-67
2022/12/09 01:39:59;;;;;;;23.98;14.05;;;3.30;99.90;;;;;;5032696;28;20018;-68
2022/12/09 01:42:26;;;;;;;21.13;14.25;;;3.30;99.90;;;;;;5032718;28;20036;-67
2022/12/09 01:45:19;;;;;;;21.48;14.27;;;3.30;99.90;;;;;;5033634;28;20036;-67
2022/12/09 01:47:53;;;;;;;24.80;14.27;;;3.30;99.90;;;;;;5032557;28;20120;-67
2022/12/09 01:50:19;;;;;;;20.08;12.93;;;3.30;99.90;;;;;;5033175;28;20052;-67
2022/12/09 01:52:46;;;;;;;22.13;12.98;;;3.20;99.90;;;;;;5032654;28;20378;-68
2022/12/09 01:55:13;;;;;;;22.48;13.93;;;3.20;99.90;;;;;;5033123;28;20083;-67
2022/12/09 01:57:39;;;;;;;21.08;14.32;;;3.20;99.90;;;;;;5031854;28;20021;-68
2022/12/09 02:00:05;;;;;;;22.08;12.82;;;3.10;99.90;;;;;;5033481;28;20551;-67
2022/12/09 02:02:34;;;;;;;20.13;13.55;;;3.10;99.90;;;;;;5030235;28;20028;-68
2022/12/09 02:05:01;;;;;;;23.20;14.50;;;3.10;99.90;;;;;;5025701;28;20022;-68
2022/12/09 02:07:27;;;;;;;19.30;12.75;;;3.10;99.90;;;;;;5031462;28;20116;-67
2022/12/09 02:09:53;;;;;;;20.92;13.63;;;3.00;99.90;;;;;;5033110;28;20120;-67
2022/12/09 02:12:27;;;;;;;19.52;12.90;;;3.00;99.90;;;;;;5030385;28;20551;-67
2022/12/09 02:15:04;;;;;;;19.90;14.13;;;3.00;99.90;;;;;;5033527;28;20022;-68
2022/12/09 02:17:40;;;;;;;22.48;13.32;;;3.10;99.90;;;;;;5031976;28;20033;-67
2022/12/09 02:20:26;;;;;;;22.33;14.48;;;3.10;99.90;;;;;;5032647;28;20022;-68
2022/12/09 02:23:07;;;;;;;19.10;13.07;;;3.10;99.90;;;;;;5032598;28;20034;-68
2022/12/09 02:25:44;;;;;;;21.80;14.30;;;3.10;99.90;;;;;;5033210;28;20025;-68
2022/12/09 02:28:28;;;;;;;25.48;13.48;;;3.10;99.90;;;;;;5032859;28;20053;-67
2022/12/09 02:31:21;;;;;;;20.85;14.05;;;3.10;99.90;;;;;;5019495;28;20091;-67
2022/12/09 02:34:18;;;;;;;22.88;13.93;;;3.20;99.90;;;;;;5024982;28;20473;-68
2022/12/09 02:36:52;;;;;;;20.75;12.68;;;3.20;99.90;;;;;;5031509;28;20034;-68
2022/12/09 02:39:25;;;;;;;19.23;12.30;;;3.30;99.90;;;;;;5031777;28;20611;-68
2022/12/09 02:41:53;;;;;;;20.88;13.82;;;3.30;99.90;;;;;;5031873;28;20033;-68
2022/12/09 02:44:21;;;;;;;20.13;13.38;;;3.30;99.90;;;;;;5032206;28;20029;-68
2022/12/09 02:46:48;;;;;;;20.10;13.43;;;3.30;99.90;;;;;;5028392;28;20040;-68
2022/12/09 02:49:14;;;;;;;19.27;12.73;;;3.30;99.90;;;;;;5026999;28;20112;-68
2022/12/09 02:51:42;;;;;;;19.63;12.27;;;3.30;99.90;;;;;;5030709;28;20069;-69
2022/12/09 02:54:13;;;;;;;22.67;14.40;;;3.30;99.90;;;;;;5017667;28;20030;-68
2022/12/09 02:56:42;;;;;;;22.70;13.10;;;3.40;99.90;;;;;;5031299;28;20048;-68
2022/12/09 02:59:08;;;;;;;17.60;12.05;;;3.40;99.90;;;;;;5021571;28;20130;-68
2022/12/09 03:01:36;;;;;;;19.52;12.70;;;3.40;99.90;;;;;;5030384;28;20479;-68
2022/12/09 03:04:03;;;;;;;19.20;12.93;;;3.40;99.90;;;;;;5042947;28;20037;-68
2022/12/09 03:06:42;;;;;;;19.98;12.50;;;3.40;99.90;;;;;;5019002;28;20384;-68
2022/12/09 03:09:17;;;;;;;20.27;12.90;;;3.40;99.90;;;;;;5031650;28;20041;-68
2022/12/09 03:11:44;;;;;;;19.98;12.93;;;3.40;99.90;;;;;;5031031;28;20069;-69
2022/12/09 03:14:22;;;;;;;27.42;12.88;;;3.50;99.90;;;;;;5031604;28;20167;-68
2022/12/09 03:17:01;;;;;;;21.35;13.35;;;3.50;99.90;;;;;;5030346;28;20033;-68
2022/12/09 03:19:30;;;;;;;19.23;12.52;;;3.50;99.90;;;;;;5031363;28;20025;-68
2022/12/09 03:22:00;;;;;;;20.08;12.43;;;3.50;99.90;;;;;;5029671;28;20029;-68
2022/12/09 03:24:43;;;;;;;19.25;12.65;;;3.60;99.90;;;;;;5032283;28;20400;-68
2022/12/09 03:27:14;;;;;;;20.13;12.65;;;3.60;99.90;;;;;;5030794;28;20044;-66
2022/12/09 03:29:43;;;;;;;18.42;11.88;;;3.60;99.90;;;;;;5031869;28;20509;-67
2022/12/09 03:32:11;;;;;;;20.25;12.57;;;3.60;99.90;;;;;;5028993;28;20029;-67
2022/12/09 03:34:40;;;;;;;21.27;14.05;;;3.60;99.90;;;;;;5032203;28;20030;-67
2022/12/09 03:37:07;;;;;;;19.90;12.55;;;3.60;99.90;;;;;;5029691;28;20026;-67
2022/12/09 03:39:35;;;;;;;17.95;11.98;;;3.60;99.90;;;;;;5031624;28;20069;-66
2022/12/09 03:42:04;;;;;;;21.00;12.43;;;3.60;99.90;;;;;;5029048;28;20040;-66
2022/12/09 03:45:02;;;;;;;21.85;13.20;;;3.60;99.90;;;;;;5032195;28;20033;-67
2022/12/09 03:47:27;;;;;;;23.80;12.18;;;3.70;99.90;;;;;;5005669;28;20131;-66
2022/12/09 03:49:54;;;;;;;21.02;12.45;;;3.60;99.90;;;;;;5025641;28;20528;-66
2022/12/09 03:52:29;;;;;;;19.42;12.40;;;3.70;99.90;;;;;;5014684;28;20526;-67
2022/12/09 03:55:04;;;;;;;21.77;14.02;;;3.70;99.90;;;;;;5031650;28;20075;-67
2022/12/09 03:57:34;;;;;;;19.98;13.30;;;3.70;99.90;;;;;;5030536;28;20107;-66
2022/12/09 04:00:01;;;;;;;23.10;13.25;;;3.80;99.90;;;;;;5030180;28;20064;-68
2022/12/09 04:02:27;;;;;;;21.73;12.55;;;3.70;99.90;;;;;;5028502;28;20460;-67
2022/12/09 04:04:53;;;;;;;19.83;12.63;;;3.80;99.90;;;;;;5020361;28;20038;-67
2022/12/09 04:07:18;;;;;;;21.02;13.40;;;3.80;99.90;;;;;;5029068;28;20353;-67
2022/12/09 04:09:44;;;;;;;20.77;13.38;;;3.80;99.90;;;;;;5030395;28;20071;-67
2022/12/09 04:12:10;;;;;;;20.38;12.85;;;3.90;99.90;;;;;;5029882;28;20047;-68
2022/12/09 04:14:36;;;;;;;19.75;13.27;;;3.80;99.90;;;;;;5031572;28;20043;-67
2022/12/09 04:17:01;;;;;;;21.67;13.30;;;3.80;99.90;;;;;;5029388;28;20021;-68
2022/12/09 04:19:27;;;;;;;22.98;13.88;;;3.80;99.90;;;;;;5029919;28;20056;-67
2022/12/09 04:21:52;;;;;;;18.42;12.13;;;3.80;99.90;;;;;;5030202;28;20106;-67
2022/12/09 04:24:18;;;;;;;19.45;13.40;;;3.80;99.90;;;;;;5029843;28;20468;-67
2022/12/09 04:26:44;;;;;;;18.10;12.23;;;3.80;99.90;;;;;;5030944;28;20026;-67
2022/12/09 04:29:11;;;;;;;18.33;12.25;;;3.80;99.90;;;;;;5020069;28;20026;-67
2022/12/09 04:31:37;;;;;;;19.70;12.25;;;3.80;99.90;;;;;;5011579;28;20033;-67
2022/12/09 04:34:03;;;;;;;20.83;12.68;;;3.70;99.90;;;;;;5026249;28;20065;-66
2022/12/09 04:36:29;;;;;;;21.20;13.38;;;3.70;99.90;;;;;;5011689;28;20030;-67
2022/12/09 04:38:54;;;;;;;23.90;14.45;;;3.70;99.90;;;;;;5025180;28;20025;-69
2022/12/09 04:41:20;;;;;;;22.55;14.60;;;3.70;99.90;;;;;;5049038;28;20060;-68
2022/12/09 04:43:45;;;;;;;23.83;14.55;;;3.70;99.90;;;;;;5034848;28;20025;-68
2022/12/09 04:46:14;;;;;;;21.15;13.70;;;3.70;99.90;;;;;;5019395;28;20030;-68
2022/12/09 04:48:40;;;;;;;24.15;15.48;;;3.70;99.90;;;;;;5028757;28;20045;-71
2022/12/09 04:51:10;;;;;;;19.13;13.02;;;3.70;99.90;;;;;;5029541;28;20032;-70
2022/12/09 04:53:36;;;;;;;22.58;13.35;;;3.70;99.90;;;;;;5029540;28;20034;-68
2022/12/09 04:56:09;;;;;;;20.27;12.95;;;3.70;99.90;;;;;;5030867;28;20021;-67
2022/12/09 04:58:35;;;;;;;20.33;12.48;;;3.70;99.90;;;;;;5029404;28;20112;-72
2022/12/09 05:01:09;;;;;;;20.02;13.43;;;3.70;99.90;;;;;;5029686;28;20504;-72
2022/12/09 05:03:35;;;;;;;18.40;12.75;;;3.70;99.90;;;;;;5033168;28;20079;-72
2022/12/09 05:06:06;;;;;;;17.70;12.85;;;3.70;99.90;;;;;;5034336;28;20904;-72
2022/12/09 05:08:32;;;;;;;20.20;12.52;;;3.70;99.90;;;;;;5022924;28;20028;-72
2022/12/09 05:10:58;;;;;;;17.38;11.80;;;3.70;99.90;;;;;;5032926;28;20034;-72
2022/12/09 05:13:26;;;;;;;17.98;12.32;;;3.70;99.90;;;;;;5031062;28;20082;-73
2022/12/09 05:16:03;;;;;;;16.65;11.15;;;3.70;99.90;;;;;;5035065;28;20033;-72
2022/12/09 05:18:29;;;;;;;17.23;11.68;;;3.70;99.90;;;;;;5033307;28;20022;-72
2022/12/09 05:20:55;;;;;;;18.08;11.25;;;3.60;99.90;;;;;;5038626;28;20032;-72
2022/12/09 05:23:21;;;;;;;17.20;12.38;;;3.70;99.90;;;;;;5034468;28;20032;-74
2022/12/09 05:25:47;;;;;;;19.48;12.88;;;3.60;99.90;;;;;;5019456;28;20105;-72
2022/12/09 05:28:13;;;;;;;19.00;11.48;;;3.60;99.90;;;;;;5036004;28;20109;-72
2022/12/09 05:30:38;;;;;;;15.50;10.40;;;3.60;99.90;;;;;;5036808;28;20079;-71
2022/12/09 05:33:04;;;;;;;16.80;10.68;;;3.60;99.90;;;;;;5033709;28;20025;-70
2022/12/09 05:35:30;;;;;;;16.90;11.30;;;3.60;99.90;;;;;;5037114;28;20333;-71
2022/12/09 05:37:56;;;;;;;15.52;10.70;;;3.50;99.90;;;;;;5036305;28;20283;-72
2022/12/09 05:40:21;;;;;;;14.70;11.00;;;3.50;99.90;;;;;;5040829;28;20033;-71
2022/12/09 05:42:47;;;;;;;16.50;11.05;;;3.50;99.90;;;;;;5037533;28;20024;-71
2022/12/09 05:45:13;;;;;;;20.17;11.93;;;3.50;99.90;;;;;;5037700;28;20494;-71
2022/12/09 05:47:39;;;;;;;21.80;14.48;;;3.50;99.90;;;;;;5049036;28;20472;-71
2022/12/09 05:50:05;;;;;;;20.45;13.25;;;3.50;99.90;;;;;;5034116;28;20037;-72
2022/12/09 05:52:33;;;;;;;19.95;12.75;;;3.40;99.90;;;;;;5031992;28;20021;-73
2022/12/09 05:54:59;;;;;;;19.05;12.50;;;3.40;99.90;;;;;;5033076;28;20044;-72
2022/12/09 05:57:24;;;;;;;20.67;13.13;;;3.40;99.90;;;;;;5033317;28;20030;-72
2022/12/09 05:59:50;;;;;;;20.80;13.80;;;3.30;99.90;;;;;;5032736;28;20045;-72
2022/12/09 06:02:15;;;;;;;20.33;13.32;;;3.30;99.90;;;;;;5032938;28;20111;-73
2022/12/09 06:04:41;;;;;;;20.02;14.13;;;3.30;99.90;;;;;;5033256;28;20060;-72
2022/12/09 06:07:07;;;;;;;21.73;14.65;;;3.40;99.90;;;;;;5027485;28;20032;-72
2022/12/09 06:09:32;;;;;;;18.23;13.18;;;3.40;99.90;;;;;;5032929;28;20491;-73
2022/12/09 06:11:58;;;;;;;19.77;13.43;;;3.40;99.90;;;;;;5032124;28;20068;-73
2022/12/09 06:14:23;;;;;;;23.40;14.43;;;3.40;99.90;;;;;;5022905;28;20073;-73
2022/12/09 06:16:49;;;;;;;20.20;13.73;;;3.40;99.90;;;;;;5029579;28;20022;-73
2022/12/09 06:19:15;;;;;;;21.58;13.95;;;3.40;99.90;;;;;;5031706;28;20033;-73
2022/12/09 06:21:41;;;;;;;20.58;13.65;;;3.40;99.90;;;;;;5030965;28;20024;-73
2022/12/09 06:24:07;;;;;;;21.15;13.80;;;3.30;99.90;;;;;;5032512;28;20464;-73
2022/12/09 06:26:33;;;;;;;21.35;13.05;;;3.30;99.90;;;;;;5048459;28;20444;-71
2022/12/09 06:28:59;;;;;;;22.13;13.43;;;3.30;99.90;;;;;;5046317;28;20100;-72
2022/12/09 06:31:26;;;;;;;19.95;12.57;;;3.40;99.90;;;;;;5029038;28;20083;-73
2022/12/09 06:33:53;;;;;;;18.35;11.82;;;3.40;99.90;;;;;;5022113;28;20548;-72
2022/12/09 06:36:18;;;;;;;18.63;13.02;;;3.40;99.90;;;;;;5032885;28;20029;-72
2022/12/09 06:38:44;;;;;;;21.77;13.52;;;3.40;99.90;;;;;;5026206;28;20048;-72
2022/12/09 06:41:12;;;;;;;22.48;14.75;;;3.40;99.90;;;;;;5028003;28;20045;-72
2022/12/09 06:43:39;;;;;;;21.15;14.63;;;3.40;99.90;;;;;;5021309;28;20505;-72
2022/12/09 06:46:13;;;;;;;23.45;15.48;;;3.40;99.90;;;;;;5031337;28;20095;-72
2022/12/09 06:48:39;;;;;;;22.60;14.18;;;3.30;99.90;;;;;;5034498;28;20032;-72
2022/12/09 06:51:05;;;;;;;22.05;14.57;;;3.40;99.90;;;;;;5032500;28;20030;-74
2022/12/09 06:53:30;;;;;;;20.98;13.35;;;3.40;99.90;;;;;;5030835;28;20117;-74
2022/12/09 06:56:03;;;;;;;19.05;13.73;;;3.30;99.90;;;;;;5032619;28;20109;-74
2022/12/09 06:58:29;;;;;;;23.20;15.00;;;3.30;99.90;;;;;;5031547;28;20030;-74
2022/12/09 07:00:55;;;;;;;21.65;14.98;;;3.30;99.90;;;;;;5031909;28;20136;-74
2022/12/09 07:03:20;;;;;;;23.38;14.50;;;3.30;99.90;;;;;;5031187;28;20052;-72
2022/12/09 07:05:46;;;;;;;21.13;14.52;;;3.30;99.90;;;;;;5031183;28;20052;-73
2022/12/09 07:08:11;;;;;;;22.83;14.80;;;3.20;99.90;;;;;;5030967;28;20307;-73
2022/12/09 07:10:37;;;;;;;24.38;14.82;;;3.20;99.90;;;;;;5030938;28;20350;-71
2022/12/09 07:13:03;;;;;;;24.05;13.20;;;3.20;99.90;;;;;;5031269;28;20061;-72
2022/12/09 07:15:28;;;;;;;25.00;15.32;;;3.20;99.90;;;;;;5032396;28;20033;-73
2022/12/09 07:17:54;;;;;;;20.90;13.25;;;3.20;99.90;;;;;;5030701;28;20036;-72
2022/12/09 07:20:20;;;;;;;22.83;14.25;;;3.20;99.90;;;;;;5027198;28;20433;-72
2022/12/09 07:22:45;;;;;;;24.08;14.10;;;3.20;99.90;;;;;;5024619;28;20111;-73
2022/12/09 07:25:11;;;;;;;22.70;14.20;;;3.20;99.90;;;;;;5030528;28;20029;-74
2022/12/09 07:27:36;;;;;;;21.90;13.55;;;3.20;99.90;;;;;;5030417;28;20030;-74
2022/12/09 07:30:03;;;;;;;21.90;14.20;;;3.20;99.90;;;;;;5021598;28;20041;-72
2022/12/09 07:32:28;;;;;;;22.00;13.07;;;3.20;99.90;;;;;;5030217;28;20029;-73
2022/12/09 07:34:54;;;;;;;20.95;12.85;;;3.20;99.90;;;;;;5031206;28;20083;-72
2022/12/09 07:37:19;;;;;;;20.25;13.73;;;3.20;99.90;;;;;;5030877;28;20064;-70
2022/12/09 07:39:45;;;;;;;21.90;13.63;;;3.30;99.90;;;;;;5031345;28;20064;-73
2022/12/09 07:42:11;;;;;;;24.48;14.27;;;3.30;99.90;;;;;;5029537;28;20077;-73
2022/12/09 07:44:38;;;;;;;23.70;12.85;;;3.30;99.90;;;;;;5031296;28;20025;-73
2022/12/09 07:47:03;;;;;;;24.85;14.38;;;3.30;99.90;;;;;;5025796;28;20026;-74
2022/12/09 07:49:29;;;;;;;23.48;13.73;;;3.30;99.90;;;;;;5018406;28;20483;-74
2022/12/09 07:51:54;;;;;;;25.38;14.10;;;3.30;99.90;;;;;;5031806;28;20490;-74
2022/12/09 07:54:20;;;;;;;22.80;13.82;;;3.30;99.90;;;;;;5024139;28;20041;-74
2022/12/09 07:56:46;;;;;;;24.42;13.25;;;3.40;99.90;;;;;;5031704;28;20029;-74
2022/12/09 07:59:13;;;;;;;23.08;14.52;;;3.40;99.90;;;;;;5030269;28;20036;-73
2022/12/09 08:01:39;;;;;;;26.33;15.45;;;3.40;99.90;;;;;;5029872;28;20041;-71
2022/12/09 08:04:05;;;;;;;27.02;15.25;;;3.40;99.90;;;;;;5023088;28;20101;-71
2022/12/09 08:06:31;;;;;;;30.33;16.13;;;3.40;99.90;;;;;;5039682;28;20036;-70
2022/12/09 08:09:02;;;;;;;28.13;15.48;;;3.40;99.90;;;;;;5026135;28;20029;-70
2022/12/09 08:11:29;;;;;;;27.17;15.25;;;3.50;99.90;;;;;;5029815;28;20029;-69
2022/12/09 08:13:57;;;;;;;24.73;14.10;;;3.50;99.90;;;;;;5030440;28;20447;-70
2022/12/09 08:16:23;;;;;;;26.75;15.02;;;3.50;99.90;;;;;;5031251;28;20385;-70
2022/12/09 08:18:49;;;;;;;28.45;14.80;;;3.60;99.90;;;;;;5029978;28;20481;-70
2022/12/09 08:21:18;;;;;;;27.65;15.05;;;3.50;99.90;;;;;;5019723;28;20030;-69
2022/12/09 08:23:44;;;;;;;26.15;15.50;;;3.60;99.90;;;;;;5023143;28;20037;-71
2022/12/09 08:26:11;;;;;;;23.10;14.20;;;3.60;99.90;;;;;;5030366;28;20030;-70
2022/12/09 08:28:37;;;;;;;25.95;16.27;;;3.60;99.90;;;;;;5028936;28;20135;-70
2022/12/09 08:31:14;;;;;;;27.77;16.10;;;3.60;99.90;;;;;;5031680;28;20048;-71
2022/12/09 08:33:40;;;;;;;24.65;14.95;;;3.60;99.90;;;;;;5030249;28;20068;-71
2022/12/09 08:36:11;;;;;;;29.20;15.20;;;3.60;99.90;;;;;;5031349;28;20029;-71
2022/12/09 08:38:37;;;;;;;26.67;14.63;;;3.60;99.90;;;;;;5032433;28;20068;-71
2022/12/09 08:41:13;;;;;;;25.23;14.30;;;3.60;99.90;;;;;;5054380;28;20041;-71
2022/12/09 08:43:40;;;;;;;29.55;16.45;;;3.60;99.90;;;;;;5049659;28;20044;-74
2022/12/09 08:46:06;;;;;;;30.13;15.65;;;3.70;99.90;;;;;;5029627;28;20084;-71
2022/12/09 08:48:36;;;;;;;27.02;15.80;;;3.70;99.90;;;;;;5033999;28;20119;-71
2022/12/09 08:51:03;;;;;;;32.75;15.40;;;3.70;99.90;;;;;;5032805;28;20037;-71
2022/12/09 08:53:28;;;;;;;31.58;16.10;;;3.70;99.90;;;;;;5021679;28;20025;-71
2022/12/09 08:55:54;;;;;;;28.33;16.10;;;3.70;99.90;;;;;;5029391;28;20080;-73
2022/12/09 08:58:19;;;;;;;27.90;15.50;;;3.80;99.90;;;;;;5030113;28;20025;-73
2022/12/09 09:00:45;;;;;;;28.10;14.52;;;3.80;99.90;;;;;;5034456;28;20053;-72
2022/12/09 09:03:11;;;;;;;24.42;13.48;;;3.70;99.90;;;;;;5030897;28;20061;-71
2022/12/09 09:05:36;;;;;;;26.60;15.90;;;3.70;99.90;;;;;;5016302;28;20033;-70
2022/12/09 09:08:02;;;;;;;31.45;17.73;;;3.80;99.90;;;;;;5033044;28;20037;-73
2022/12/09 09:10:28;;;;;;;30.70;16.73;;;3.70;99.90;;;;;;5034284;28;20042;-71
2022/12/09 09:12:54;;;;;;;24.05;14.68;;;3.80;99.90;;;;;;5032337;28;20492;-70
2022/12/09 09:15:21;;;;;;;34.70;17.90;;;3.80;99.90;;;;;;5033526;28;20039;-70
2022/12/09 09:17:46;;;;;;;26.27;15.68;;;3.80;99.90;;;;;;5034234;28;20473;-71
2022/12/09 09:20:12;;;;;;;27.83;15.82;;;3.80;99.90;;;;;;5032955;28;20039;-69
2022/12/09 09:22:37;;;;;;;28.95;15.73;;;3.90;99.90;;;;;;5034110;28;20037;-72
2022/12/09 09:25:03;;;;;;;29.48;16.70;;;3.80;99.90;;;;;;5027073;28;20507;-73
2022/12/09 09:27:29;;;;;;;27.15;15.45;;;3.80;99.90;;;;;;5033976;28;20069;-71
2022/12/09 09:29:54;;;;;;;30.52;15.95;;;3.80;99.90;;;;;;5033209;28;20137;-72
2022/12/09 09:32:20;;;;;;;28.33;16.20;;;3.90;99.90;;;;;;5030857;28;20021;-72
2022/12/09 09:34:48;;;;;;;26.52;16.33;;;3.90;99.90;;;;;;5032625;28;20035;-72
2022/12/09 09:37:15;;;;;;;29.48;17.15;;;3.90;99.90;;;;;;5027636;28;20117;-76
2022/12/09 09:39:40;;;;;;;27.73;15.88;;;3.90;99.90;;;;;;5009017;28;20503;-74
2022/12/09 09:42:16;;;;;;;28.15;15.50;;;3.90;99.90;;;;;;5021556;28;20033;-73
2022/12/09 09:44:47;;;;;;;24.83;16.15;;;3.90;99.90;;;;;;5033915;28;20368;-73
2022/12/09 09:47:43;;;;;;;28.73;16.23;;;4.00;99.90;;;;;;5033162;28;20907;-72
2022/12/09 09:50:24;;;;;;;32.88;19.10;;;4.00;99.90;;;;;;5034608;28;20435;-71
2022/12/09 09:52:52;;;;;;;28.70;16.67;;;4.00;99.90;;;;;;5033118;28;20116;-71
2022/12/09 09:55:44;;;;;;;30.05;17.13;;;4.00;99.90;;;;;;5026295;28;20377;-72
2022/12/09 09:58:35;;;;;;;29.05;14.80;;;4.00;99.90;;;;;;5019864;28;20188;-71
2022/12/09 10:01:05;;;;;;;30.25;17.10;;;4.00;99.90;;;;;;5034306;28;20471;-74
2022/12/09 10:03:43;;;;;;;29.00;16.30;;;4.00;99.90;;;;;;5033126;28;20037;-74
2022/12/09 10:06:47;;;;;;;28.40;15.93;;;4.00;99.90;;;;;;5034070;28;20377;-74
2022/12/09 10:09:29;;;;;;;26.95;15.70;;;4.00;99.90;;;;;;5020065;28;20045;-73
2022/12/09 10:12:19;;;;;;;27.85;15.50;;;4.00;99.90;;;;;;5033344;28;20469;-73
2022/12/09 10:14:59;;;;;;;27.25;15.40;;;4.00;99.90;;;;;;5034206;28;20468;-73
2022/12/09 10:17:32;;;;;;;26.05;15.65;;;4.10;99.90;;;;;;5015047;28;20481;-75
2022/12/09 10:20:10;;;;;;;27.73;16.02;;;4.00;99.90;;;;;;5031043;28;20522;-76
2022/12/09 10:22:42;;;;;;;29.52;17.38;;;4.00;99.90;;;;;;5032626;28;20492;-74
2022/12/09 10:25:22;;;;;;;25.98;13.98;;;4.00;99.90;;;;;;5023615;28;20045;-73
2022/12/09 10:27:55;;;;;;;24.95;14.90;;;4.00;99.90;;;;;;5031673;28;20481;-70
2022/12/09 10:30:21;;;;;;;26.63;15.73;;;4.10;99.90;;;;;;5033389;28;20041;-75
2022/12/09 10:32:47;;;;;;;27.58;15.45;;;4.00;99.90;;;;;;5032814;28;20031;-78
2022/12/09 10:35:23;;;;;;;30.80;15.68;;;4.10;99.90;;;;;;5034253;28;20087;-75
2022/12/09 10:37:51;;;;;;;29.65;16.52;;;4.10;99.90;;;;;;5037679;28;20488;-77
2022/12/09 10:40:28;;;;;;;24.05;14.35;;;4.10;99.90;;;;;;5033988;28;20039;-75
2022/12/09 10:45:48;;;;;;;27.27;16.58;;;4.10;99.90;;;;;;5032658;28;20322;-76
2022/12/09 10:48:30;;;;;;;35.20;18.05;;;4.10;99.90;;;;;;5036292;28;20410;-75
2022/12/09 10:50:59;;;;;;;31.55;17.58;;;4.10;99.90;;;;;;5033778;28;20065;-75
2022/12/09 10:53:27;;;;;;;33.50;18.08;;;4.10;99.90;;;;;;5031115;28;20037;-75
2022/12/09 10:55:54;;;;;;;27.42;15.60;;;4.10;99.90;;;;;;5032442;28;20044;-76
2022/12/09 10:58:25;;;;;;;29.40;16.83;;;4.20;99.90;;;;;;5032171;28;20053;-75
2022/12/09 11:01:07;;;;;;;27.98;16.58;;;4.20;99.90;;;;;;5031073;28;20045;-74
2022/12/09 11:03:45;;;;;;;39.42;19.70;;;4.20;99.90;;;;;;5031951;28;20102;-74
2022/12/09 11:06:29;;;;;;;32.17;16.67;;;4.20;99.90;;;;;;5022187;28;20026;-74
2022/12/09 11:09:01;;;;;;;30.23;15.52;;;4.20;99.90;;;;;;5031604;28;20037;-74
2022/12/09 11:11:46;;;;;;;37.17;19.55;;;4.20;99.90;;;;;;5037340;28;20116;-73
2022/12/09 11:14:39;;;;;;;35.78;18.77;;;4.10;99.90;;;;;;5032644;28;20460;-72
2022/12/09 11:17:16;;;;;;;35.05;16.50;;;4.00;99.90;;;;;;5028259;28;20059;-73
2022/12/09 11:19:48;;;;;;;33.67;17.45;;;4.00;99.90;;;;;;5048182;28;20120;-73
2022/12/09 11:22:39;;;;;;;30.05;17.75;;;3.80;99.90;;;;;;5031573;28;20025;-72
2022/12/09 11:25:11;;;;;;;32.13;17.98;;;3.70;99.90;;;;;;5018289;28;20076;-73
2022/12/09 11:27:41;;;;;;;31.38;18.10;;;3.70;99.90;;;;;;5039099;28;20476;-73
2022/12/09 11:30:12;;;;;;;29.98;18.02;;;3.70;99.90;;;;;;5032324;28;20095;-73
2022/12/09 11:33:11;;;;;;;29.15;17.70;;;3.70;99.90;;;;;;5025724;28;20025;-70
2022/12/09 11:35:43;;;;;;;31.88;19.23;;;3.80;99.90;;;;;;5001240;28;20057;-71
2022/12/09 11:38:14;;;;;;;37.55;19.75;;;3.80;99.90;;;;;;5027098;28;20100;-70
2022/12/09 11:40:40;;;;;;;31.63;19.45;;;3.90;99.90;;;;;;5032111;28;20029;-70
2022/12/09 11:43:06;;;;;;;29.85;18.52;;;3.80;99.90;;;;;;5032296;28;20036;-72
2022/12/09 11:45:39;;;;;;;30.23;17.85;;;3.70;99.90;;;;;;5031432;28;20423;-72
2022/12/09 11:48:30;;;;;;;61.40;20.23;;;3.60;99.90;;;;;;5028026;28;20556;-72
2022/12/09 11:50:56;;;;;;;36.05;17.48;;;3.60;99.90;;;;;;5026003;28;20523;-72
2022/12/09 11:53:33;;;;;;;32.47;15.88;;;3.50;99.90;;;;;;5031326;28;20095;-72
2022/12/09 11:56:06;;;;;;;27.48;14.32;;;3.40;99.90;;;;;;5030876;28;20071;-70
2022/12/09 11:58:39;;;;;;;24.45;16.00;;;3.40;99.90;;;;;;5046093;28;20041;-72
2022/12/09 12:01:16;;;;;;;20.13;12.20;;;3.40;99.90;;;;;;5031647;28;20084;-73
2022/12/09 12:03:51;;;;;;;23.65;13.68;;;3.40;99.90;;;;;;5026598;28;20056;-72
2022/12/09 12:06:40;;;;;;;20.75;12.23;;;3.40;99.90;;;;;;5030974;28;20033;-71
2022/12/09 12:09:28;;;;;;;18.90;11.68;;;3.50;99.90;;;;;;5025137;28;20079;-73
2022/12/09 12:12:13;;;;;;;20.75;12.20;;;3.50;99.90;;;;;;5032318;28;20447;-74
2022/12/09 12:14:41;;;;;;;18.63;12.38;;;3.60;99.90;;;;;;5029061;28;20038;-75
2022/12/09 12:17:12;;;;;;;17.42;11.15;;;3.60;99.90;;;;;;5029124;28;20086;-75
2022/12/09 12:19:39;;;;;;;17.83;11.13;;;3.60;99.90;;;;;;5024805;28;20113;-74
2022/12/09 12:22:19;;;;;;;16.42;10.48;;;3.60;99.90;;;;;;5029155;28;20072;-75
2022/12/09 12:25:03;;;;;;;18.42;10.90;;;3.70;99.90;;;;;;5031787;28;20029;-75
2022/12/09 12:27:37;;;;;;;19.48;11.48;;;3.70;99.90;;;;;;5025710;28;20468;-74
2022/12/09 12:30:17;;;;;;;16.73;9.77;;;3.70;99.90;;;;;;5030344;28;20041;-74
2022/12/09 12:33:17;;;;;;;26.08;12.18;;;3.70;99.90;;;;;;5030732;28;20072;-74
2022/12/09 12:36:00;;;;;;;30.13;12.00;;;3.70;99.90;;;;;;5019827;28;20048;-76
2022/12/09 12:39:03;;;;;;;18.73;10.90;;;3.50;99.90;;;;;;5030688;28;20036;-74
2022/12/09 12:42:10;;;;;;;17.63;10.30;;;3.30;99.90;;;;;;5026592;28;20026;-74
2022/12/09 12:47:26;;;;;;;16.83;10.35;;;3.10;99.90;;;;;;5020412;28;20087;-74
2022/12/09 12:50:13;;;;;;;18.27;10.05;;;3.10;99.90;;;;;;5012080;28;20335;-74
2022/12/09 12:52:45;;;;;;;14.80;9.77;;;3.10;99.90;;;;;;5022424;28;20024;-75
2022/12/09 12:55:37;;;;;;;14.23;8.98;;;3.10;99.90;;;;;;5031632;28;20484;-74
2022/12/09 12:58:27;;;;;;;14.07;9.27;;;3.20;99.90;;;;;;5024716;28;20037;-75